createdAt,value
2022-11-22T00:00:02.561Z,97.2
2022-11-22T00:05:02.981Z,96.91
2022-11-22T00:10:02.737Z,96.7
2022-11-22T00:15:03.038Z,96.62
2022-11-22T00:20:02.774Z,96.71
2022-11-22T00:25:02.773Z,96.53
2022-11-22T00:30:03.272Z,96.57
2022-11-22T00:35:02.644Z,96.83
2022-11-22T00:40:02.853Z,96.74
2022-11-22T00:45:02.932Z,96.73
2022-11-22T00:50:02.605Z,96.76
2022-11-22T00:55:03.567Z,96.85
2022-11-22T01:00:03.054Z,96.6
2022-11-22T01:05:02.699Z,96.54
2022-11-22T01:10:02.719Z,96.35
2022-11-22T01:15:03.531Z,96.58
2022-11-22T01:20:03.179Z,96.57
2022-11-22T01:25:02.567Z,96.35
2022-11-22T01:30:04.009Z,96.66
2022-11-22T01:35:03.612Z,96.73
2022-11-22T01:40:03.341Z,96.63
2022-11-22T01:45:03.126Z,96.6
2022-11-22T01:50:02.448Z,96.9
2022-11-22T01:55:04.585Z,97.14
2022-11-22T02:00:02.933Z,97.03
2022-11-22T02:05:02.426Z,97.02
2022-11-22T02:10:03.429Z,96.98
2022-11-22T02:15:02.726Z,96.99
2022-11-22T02:20:02.628Z,96.81
2022-11-22T02:25:03.180Z,96.87
2022-11-22T02:30:02.785Z,97.14
2022-11-22T02:35:02.240Z,97.31
2022-11-22T02:40:03.247Z,97.27
2022-11-22T02:45:03.208Z,97.31
2022-11-22T02:50:02.722Z,97.3
2022-11-22T02:55:04.456Z,97.28
2022-11-22T03:00:02.521Z,97.36
2022-11-22T03:05:02.514Z,97.18
2022-11-22T03:10:03.237Z,97.38
2022-11-22T03:15:02.731Z,97.25
2022-11-22T03:20:02.978Z,97.11
2022-11-22T03:25:02.525Z,96.81
2022-11-22T03:30:03.531Z,96.91
2022-11-22T03:35:03.259Z,97.01
2022-11-22T03:40:02.920Z,96.92
2022-11-22T03:45:02.723Z,97.06
2022-11-22T03:50:02.679Z,96.98
2022-11-22T03:55:03.521Z,96.63
2022-11-22T04:00:02.568Z,96.66
2022-11-22T04:05:03.017Z,96.43
2022-11-22T04:10:02.641Z,96.24
2022-11-22T04:15:03.435Z,96.34
2022-11-22T04:20:03.370Z,96.2
2022-11-22T04:25:02.345Z,96.26
2022-11-22T04:30:03.525Z,96.36
2022-11-22T04:35:03.339Z,96.42
2022-11-22T04:40:03.185Z,96.4
2022-11-22T04:45:02.641Z,96.55
2022-11-22T04:50:02.877Z,96.41
2022-11-22T04:55:03.966Z,96.49
2022-11-22T05:00:02.786Z,96.83
2022-11-22T05:05:02.246Z,96.78
2022-11-22T05:10:03.463Z,96.92
2022-11-22T05:15:02.856Z,97.13
2022-11-22T05:20:03.452Z,97.11
2022-11-22T05:25:02.830Z,97
2022-11-22T05:30:03.435Z,97.09
2022-11-22T05:35:03.368Z,96.89
2022-11-22T05:40:02.758Z,97.02
2022-11-22T05:45:02.484Z,97.01
2022-11-22T05:50:03.456Z,96.74
2022-11-22T05:55:03.849Z,96.81
2022-11-22T06:00:03.678Z,96.99
2022-11-22T06:05:03.482Z,96.79
2022-11-22T06:10:02.908Z,97.06
2022-11-22T06:15:02.869Z,96.91
2022-11-22T06:20:06.014Z,96.98
2022-11-22T06:25:03.175Z,96.91
2022-11-22T06:30:02.938Z,96.7
2022-11-22T06:35:02.946Z,96.5
2022-11-22T06:40:02.672Z,96.22
2022-11-22T06:45:03.141Z,95.95
2022-11-22T06:50:02.633Z,95.87
2022-11-22T06:55:08.424Z,95.49
2022-11-22T07:00:03.058Z,95.24
2022-11-22T07:05:24.323Z,95.33
2022-11-22T07:10:03.108Z,94.98
2022-11-22T07:15:03.181Z,94.9
2022-11-22T07:20:02.721Z,94.94
2022-11-22T07:25:03.282Z,94.62
2022-11-22T07:30:02.826Z,94.47
2022-11-22T07:35:02.698Z,94
2022-11-22T07:40:03.138Z,93.69
2022-11-22T07:45:03.141Z,93.57
2022-11-22T07:50:03.158Z,93.09
2022-11-22T07:55:04.221Z,93.14
2022-11-22T08:00:02.649Z,93.14
2022-11-22T08:05:02.591Z,93.04
2022-11-22T08:10:03.301Z,92.45
2022-11-22T08:15:03.204Z,91.97
2022-11-22T08:20:02.808Z,92.31
2022-11-22T08:25:02.430Z,92.74
2022-11-22T08:30:02.692Z,92.73
2022-11-22T08:35:03.389Z,93.06
2022-11-22T08:40:02.867Z,93.59
2022-11-22T08:45:02.874Z,94.01
2022-11-22T08:50:02.331Z,93.63
2022-11-22T08:55:04.770Z,94.07
2022-11-22T09:00:03.081Z,93.65
2022-11-22T09:05:02.681Z,93.71
2022-11-22T09:10:03.041Z,94.63
2022-11-22T09:15:02.342Z,94.55
2022-11-22T09:20:03.323Z,94.67
2022-11-22T09:25:02.995Z,95.28
2022-11-22T09:30:02.511Z,94.95
2022-11-22T09:35:02.627Z,94.35
2022-11-22T09:40:03.038Z,94.21
2022-11-22T09:45:03.187Z,93.42
2022-11-22T09:50:02.733Z,93.04
2022-11-22T09:55:04.373Z,92.74
2022-11-22T10:00:02.841Z,92.2
2022-11-22T10:05:03.012Z,92.04
2022-11-22T10:10:02.444Z,91.28
2022-11-22T10:15:03.515Z,90.84
2022-11-22T10:20:03.047Z,90.31
2022-11-22T10:25:02.433Z,89.75
2022-11-22T10:30:03.154Z,90.26
2022-11-22T10:35:03.130Z,89.67
2022-11-22T10:40:02.964Z,88.46
2022-11-22T10:45:02.490Z,89.67
2022-11-22T10:50:02.546Z,89.3
2022-11-22T10:55:04.223Z,89.61
2022-11-22T11:00:03.023Z,88.64
2022-11-22T11:05:02.739Z,89.1
2022-11-22T11:10:32.483Z,88.75
2022-11-22T11:15:03.143Z,88.49
2022-11-22T11:20:03.233Z,89.13
2022-11-22T11:25:02.497Z,89.26
2022-11-22T11:30:03.294Z,90
2022-11-22T11:35:02.899Z,89.59
2022-11-22T11:40:02.526Z,89.78
2022-11-22T11:45:03.063Z,90.19
2022-11-22T11:50:02.988Z,89.28
2022-11-22T11:55:04.189Z,89.83
2022-11-22T12:00:03.492Z,89.44
2022-11-22T12:05:03.075Z,89.31
2022-11-22T12:10:02.963Z,89.18
2022-11-22T12:15:11.473Z,88.94
2022-11-22T12:20:02.760Z,89.15
2022-11-22T12:25:30.787Z,88.78
2022-11-22T12:30:03.329Z,89
2022-11-22T12:35:03.059Z,88.54
2022-11-22T12:40:02.480Z,88.91
2022-11-22T12:45:03.198Z,88.79
2022-11-22T12:50:03.491Z,89.2
2022-11-22T12:55:03.601Z,89.68
2022-11-22T13:00:03.467Z,89.36
2022-11-22T13:05:03.093Z,89.85
2022-11-22T13:10:02.924Z,89.65
2022-11-22T13:15:03.031Z,89.43
2022-11-22T13:20:02.514Z,89.43
2022-11-22T13:25:03.096Z,89.57
2022-11-22T13:30:02.794Z,89.81
2022-11-22T13:35:02.676Z,89.33
2022-11-22T13:40:02.793Z,89.59
2022-11-22T13:45:03.521Z,89.97
2022-11-22T13:50:03.441Z,90.26
2022-11-22T13:55:04.575Z,90.57
2022-11-22T14:00:02.854Z,90.59
2022-11-22T14:05:02.794Z,90.68
2022-11-22T14:10:02.595Z,91.05
2022-11-22T14:15:03.062Z,90.89
2022-11-22T14:20:02.306Z,91.09
2022-11-22T14:25:03.449Z,90.92
2022-11-22T14:30:03.116Z,90.88
2022-11-22T14:35:02.520Z,91.34
2022-11-22T14:40:02.558Z,91.19
2022-11-22T14:45:03.016Z,91.36
2022-11-22T14:50:03.012Z,91.51
2022-11-22T14:55:04.047Z,91.35
2022-11-22T15:00:02.346Z,91.34
2022-11-22T15:09:09.439Z,91.47
2022-11-22T15:10:03.965Z,91.41
2022-11-22T16:00:02.622Z,92.46
2022-11-22T16:06:12.565Z,93.03
2022-11-22T16:10:02.985Z,93.02
2022-11-22T16:15:03.376Z,93.4
2022-11-22T16:20:02.749Z,93.28
2022-11-22T16:25:10.049Z,93.37
2022-11-22T16:30:02.755Z,93.56
2022-11-22T16:35:27.825Z,93.82
2022-11-22T16:40:02.920Z,93.56
2022-11-22T16:45:04.169Z,93.83
2022-11-22T16:50:03.431Z,93.73
2022-11-22T16:55:04.352Z,93.87
2022-11-22T17:00:02.516Z,93.83
2022-11-22T17:05:02.675Z,93.72
2022-11-22T17:10:03.288Z,93.8
2022-11-22T17:15:02.608Z,93.88
2022-11-22T17:20:03.252Z,94.17
2022-11-22T17:25:02.980Z,94.01
2022-11-22T17:30:02.388Z,94.14
2022-11-22T17:35:03.020Z,94.22
2022-11-22T17:40:03.190Z,94.49
2022-11-22T17:45:02.957Z,94.38
2022-11-22T17:50:02.353Z,94.64
2022-11-22T17:55:14.584Z,94.68
2022-11-22T18:00:02.302Z,95.05
2022-11-22T18:05:03.280Z,94.84
2022-11-22T18:10:03.217Z,95.16
2022-11-22T18:15:02.689Z,95.13
2022-11-22T18:20:02.907Z,95.02
2022-11-22T18:25:02.747Z,95.17
2022-11-22T18:30:03.514Z,94.91
2022-11-22T18:35:02.987Z,94.85
2022-11-22T18:40:02.417Z,95.21
2022-11-22T18:45:03.532Z,95.68
2022-11-22T18:50:03.032Z,95.57
2022-11-22T18:55:04.132Z,95.47
2022-11-22T19:00:02.417Z,95.86
2022-11-22T19:05:03.263Z,96.35
2022-11-22T19:10:02.744Z,96.72
2022-11-22T19:15:02.533Z,96.27
2022-11-22T19:20:02.544Z,96.75
2022-11-22T19:25:03.270Z,97.01
2022-11-22T19:30:02.896Z,97.12
2022-11-22T19:35:03.162Z,97.76
2022-11-22T19:40:03.459Z,97.46
2022-11-22T19:45:02.812Z,96.91
2022-11-22T19:50:03.191Z,97.39
2022-11-22T19:55:04.437Z,97.33
2022-11-22T20:00:02.739Z,97.63
2022-11-22T20:05:02.644Z,97.61
2022-11-22T20:10:02.610Z,97.7
2022-11-22T20:15:02.613Z,97.94
2022-11-22T20:20:02.610Z,97.6
2022-11-22T20:25:03.366Z,97.23
2022-11-22T20:30:03.148Z,97.62
2022-11-22T20:35:03.116Z,97.85
2022-11-22T20:40:02.579Z,97.19
2022-11-22T20:45:02.655Z,97.6
2022-11-22T20:50:02.411Z,97.69
2022-11-22T20:55:05.760Z,97.51
2022-11-22T21:00:02.696Z,98.37
2022-11-22T21:05:02.688Z,98.2
2022-11-22T21:10:02.441Z,98.46
2022-11-22T21:15:02.801Z,98.05
2022-11-22T21:20:03.287Z,97.99
2022-11-22T21:25:03.095Z,98.07
2022-11-22T21:30:02.708Z,98.26
2022-11-22T21:35:02.363Z,98.11
2022-11-22T21:40:03.303Z,98.17
2022-11-22T21:45:03.110Z,97.88
2022-11-22T21:50:12.089Z,98.54
2022-11-22T21:55:04.038Z,98.44
2022-11-22T22:00:02.577Z,98.17
2022-11-22T22:05:03.339Z,98.02
2022-11-22T22:10:02.693Z,97.81
2022-11-22T22:15:03.440Z,97.92
2022-11-22T22:20:03.385Z,97.99
2022-11-22T22:25:02.385Z,97.96
2022-11-22T22:30:02.565Z,97.72
2022-11-22T22:35:03.214Z,97.46
2022-11-22T22:40:02.477Z,97.47
2022-11-22T22:45:03.636Z,97.27
2022-11-22T22:50:03.174Z,97.03
2022-11-22T22:55:04.045Z,97.04
2022-11-22T23:00:02.757Z,96.71
2022-11-22T23:05:03.293Z,96.88
2022-11-22T23:10:02.833Z,96.36
2022-11-22T23:15:02.349Z,96.73
2022-11-22T23:20:03.075Z,96.26
2022-11-22T23:25:02.552Z,96.58
2022-11-22T23:30:02.711Z,96.92
2022-11-22T23:35:03.199Z,96.87
2022-11-22T23:40:02.893Z,96.97
2022-11-22T23:45:02.312Z,96.9
2022-11-22T23:50:03.017Z,96.96
2022-11-22T23:55:03.956Z,96.86
